sensor_id;sensor_type;location;lat;lon;timestamp;P1;durP1;ratioP1;P2;durP2;ratioP2
69917;SDS011;57203;42.672;23.334;2022-11-11T00:00:08;39.4;;;22.5;;
69917;SDS011;57203;42.672;23.334;2022-11-11T00:01:09;40.7;;;22.4;;
69917;SDS011;57203;42.672;23.334;2022-11-11T00:02:08;42.7;;;21.9;;
69917;SDS011;57203;42.672;23.334;2022-11-11T00:03:08;42.7;;;23.8;;
69917;SDS011;57203;42.672;23.334;2022-11-11T00:04:08;44.9;;;24.9;;
69917;SDS011;57203;42.672;23.334;2022-11-11T00:05:08;48.4;;;24.8;;
69917;SDS011;57203;42.672;23.334;2022-11-11T00:06:09;46.6;;;24.5;;
69917;SDS011;57203;42.672;23.334;2022-11-11T00:07:09;44.9;;;25.4;;
69917;SDS011;57203;42.672;23.334;2022-11-11T00:08:09;48.1;;;25.1;;
69917;SDS011;57203;42.672;23.334;2022-11-11T00:09:10;48.1;;;25.8;;
69917;SDS011;57203;42.672;23.334;2022-11-11T00:10:09;50.1;;;26.7;;
69917;SDS011;57203;42.672;23.334;2022-11-11T00:11:10;47.0;;;25.9;;
69917;SDS011;57203;42.672;23.334;2022-11-11T00:12:09;52.5;;;27.8;;
69917;SDS011;57203;42.672;23.334;2022-11-11T00:13:10;50.0;;;27.5;;
69917;SDS011;57203;42.672;23.334;2022-11-11T00:15:10;47.5;;;27.0;;
69917;SDS011;57203;42.672;23.334;2022-11-11T00:16:11;49.4;;;27.2;;
69917;SDS011;57203;42.672;23.334;2022-11-11T00:17:11;49.6;;;25.1;;
69917;SDS011;57203;42.672;23.334;2022-11-11T00:18:11;46.2;;;26.7;;
69917;SDS011;57203;42.672;23.334;2022-11-11T00:19:11;46.2;;;26.0;;
69917;SDS011;57203;42.672;23.334;2022-11-11T00:21:12;51.7;;;25.0;;
69917;SDS011;57203;42.672;23.334;2022-11-11T00:22:14;47.3;;;23.6;;
69917;SDS011;57203;42.672;23.334;2022-11-11T00:23:14;48.8;;;24.7;;
69917;SDS011;57203;42.672;23.334;2022-11-11T00:24:18;48.8;;;23.5;;
69917;SDS011;57203;42.672;23.334;2022-11-11T00:25:15;42.1;;;24.5;;
69917;SDS011;57203;42.672;23.334;2022-11-11T00:26:12;44.8;;;23.8;;
69917;SDS011;57203;42.672;23.334;2022-11-11T00:27:13;44.8;;;24.4;;
69917;SDS011;57203;42.672;23.334;2022-11-11T00:28:12;47.9;;;25.7;;
69917;SDS011;57203;42.672;23.334;2022-11-11T00:29:12;47.9;;;22.7;;
69917;SDS011;57203;42.672;23.334;2022-11-11T00:30:13;43.8;;;23.7;;
69917;SDS011;57203;42.672;23.334;2022-11-11T00:31:13;41.9;;;23.5;;
69917;SDS011;57203;42.672;23.334;2022-11-11T00:32:14;41.3;;;23.2;;
69917;SDS011;57203;42.672;23.334;2022-11-11T00:33:13;40.1;;;22.4;;
69917;SDS011;57203;42.672;23.334;2022-11-11T00:34:13;40.1;;;22.2;;
69917;SDS011;57203;42.672;23.334;2022-11-11T00:35:13;42.7;;;21.9;;
69917;SDS011;57203;42.672;23.334;2022-11-11T00:36:14;42.7;;;21.7;;
69917;SDS011;57203;42.672;23.334;2022-11-11T00:37:14;43.0;;;21.2;;
69917;SDS011;57203;42.672;23.334;2022-11-11T00:38:14;42.7;;;20.3;;
69917;SDS011;57203;42.672;23.334;2022-11-11T00:39:14;42.7;;;18.8;;
69917;SDS011;57203;42.672;23.334;2022-11-11T00:40:14;36.7;;;19.2;;
69917;SDS011;57203;42.672;23.334;2022-11-11T00:41:15;37.7;;;18.3;;
69917;SDS011;57203;42.672;23.334;2022-11-11T00:42:15;34.2;;;18.6;;
69917;SDS011;57203;42.672;23.334;2022-11-11T00:43:15;34.2;;;17.9;;
69917;SDS011;57203;42.672;23.334;2022-11-11T00:44:15;33.9;;;17.2;;
69917;SDS011;57203;42.672;23.334;2022-11-11T00:45:15;33.2;;;18.0;;
69917;SDS011;57203;42.672;23.334;2022-11-11T00:46:15;33.2;;;16.6;;
69917;SDS011;57203;42.672;23.334;2022-11-11T00:47:16;31.8;;;17.9;;
69917;SDS011;57203;42.672;23.334;2022-11-11T00:48:16;31.8;;;16.1;;
69917;SDS011;57203;42.672;23.334;2022-11-11T00:49:16;33.3;;;17.3;;
69917;SDS011;57203;42.672;23.334;2022-11-11T00:50:18;28.7;;;15.8;;
69917;SDS011;57203;42.672;23.334;2022-11-11T00:51:16;28.9;;;16.1;;
69917;SDS011;57203;42.672;23.334;2022-11-11T00:52:17;28.9;;;15.8;;
69917;SDS011;57203;42.672;23.334;2022-11-11T00:54:17;28.8;;;16.1;;
69917;SDS011;57203;42.672;23.334;2022-11-11T00:55:17;28.8;;;16.8;;
69917;SDS011;57203;42.672;23.334;2022-11-11T00:56:17;32.2;;;16.2;;
69917;SDS011;57203;42.672;23.334;2022-11-11T00:57:17;29.5;;;15.9;;
69917;SDS011;57203;42.672;23.334;2022-11-11T00:58:18;29.5;;;16.9;;
69917;SDS011;57203;42.672;23.334;2022-11-11T00:59:18;33.3;;;15.9;;
69917;SDS011;57203;42.672;23.334;2022-11-11T01:00:18;27.9;;;15.3;;
69917;SDS011;57203;42.672;23.334;2022-11-11T01:02:18;27.1;;;16.1;;
69917;SDS011;57203;42.672;23.334;2022-11-11T01:03:19;28.5;;;14.8;;
69917;SDS011;57203;42.672;23.334;2022-11-11T01:04:19;28.6;;;15.2;;
69917;SDS011;57203;42.672;23.334;2022-11-11T01:05:19;28.6;;;15.0;;
69917;SDS011;57203;42.672;23.334;2022-11-11T01:06:19;26.1;;;16.3;;
69917;SDS011;57203;42.672;23.334;2022-11-11T01:07:19;28.0;;;15.3;;
69917;SDS011;57203;42.672;23.334;2022-11-11T01:08:20;28.9;;;15.1;;
69917;SDS011;57203;42.672;23.334;2022-11-11T01:09:20;28.1;;;15.7;;
69917;SDS011;57203;42.672;23.334;2022-11-11T01:10:20;30.1;;;15.2;;
69917;SDS011;57203;42.672;23.334;2022-11-11T01:11:21;27.0;;;15.1;;
69917;SDS011;57203;42.672;23.334;2022-11-11T01:12:20;27.4;;;14.5;;
69917;SDS011;57203;42.672;23.334;2022-11-11T01:13:21;30.7;;;15.3;;
69917;SDS011;57203;42.672;23.334;2022-11-11T01:14:21;28.7;;;15.6;;
69917;SDS011;57203;42.672;23.334;2022-11-11T01:15:21;28.2;;;16.1;;
69917;SDS011;57203;42.672;23.334;2022-11-11T01:16:22;28.2;;;15.7;;
69917;SDS011;57203;42.672;23.334;2022-11-11T01:17:21;27.7;;;14.4;;
69917;SDS011;57203;42.672;23.334;2022-11-11T01:18:22;27.7;;;15.5;;
69917;SDS011;57203;42.672;23.334;2022-11-11T01:19:22;28.4;;;15.2;;
69917;SDS011;57203;42.672;23.334;2022-11-11T01:20:22;27.5;;;15.7;;
69917;SDS011;57203;42.672;23.334;2022-11-11T01:21:22;28.3;;;14.8;;
69917;SDS011;57203;42.672;23.334;2022-11-11T01:23:22;25.9;;;15.4;;
69917;SDS011;57203;42.672;23.334;2022-11-11T01:24:23;27.3;;;14.9;;
69917;SDS011;57203;42.672;23.334;2022-11-11T01:25:23;29.0;;;15.3;;
69917;SDS011;57203;42.672;23.334;2022-11-11T01:26:23;29.0;;;14.7;;
69917;SDS011;57203;42.672;23.334;2022-11-11T01:27:23;29.0;;;15.3;;
69917;SDS011;57203;42.672;23.334;2022-11-11T01:28:23;29.7;;;15.6;;
69917;SDS011;57203;42.672;23.334;2022-11-11T01:29:23;29.9;;;15.1;;
69917;SDS011;57203;42.672;23.334;2022-11-11T01:30:24;31.2;;;15.2;;
69917;SDS011;57203;42.672;23.334;2022-11-11T01:31:24;28.8;;;15.9;;
69917;SDS011;57203;42.672;23.334;2022-11-11T01:32:24;31.1;;;15.7;;
69917;SDS011;57203;42.672;23.334;2022-11-11T01:33:24;29.7;;;14.5;;
69917;SDS011;57203;42.672;23.334;2022-11-11T01:34:24;29.3;;;15.5;;
69917;SDS011;57203;42.672;23.334;2022-11-11T01:35:25;29.3;;;14.9;;
69917;SDS011;57203;42.672;23.334;2022-11-11T01:36:26;28.7;;;16.8;;
69917;SDS011;57203;42.672;23.334;2022-11-11T01:37:25;28.7;;;14.6;;
69917;SDS011;57203;42.672;23.334;2022-11-11T01:38:25;27.4;;;15.1;;
69917;SDS011;57203;42.672;23.334;2022-11-11T01:40:25;28.3;;;14.3;;
69917;SDS011;57203;42.672;23.334;2022-11-11T01:41:26;26.1;;;16.1;;
69917;SDS011;57203;42.672;23.334;2022-11-11T01:46:28;29.0;;;16.0;;
69917;SDS011;57203;42.672;23.334;2022-11-11T01:47:27;29.2;;;15.6;;
69917;SDS011;57203;42.672;23.334;2022-11-11T01:49:28;29.8;;;15.4;;
69917;SDS011;57203;42.672;23.334;2022-11-11T01:50:27;29.8;;;15.7;;
69917;SDS011;57203;42.672;23.334;2022-11-11T01:51:33;29.4;;;15.2;;
69917;SDS011;57203;42.672;23.334;2022-11-11T01:52:29;27.8;;;16.0;;
69917;SDS011;57203;42.672;23.334;2022-11-11T01:53:28;30.3;;;16.5;;
69917;SDS011;57203;42.672;23.334;2022-11-11T01:54:31;31.5;;;16.3;;
69917;SDS011;57203;42.672;23.334;2022-11-11T01:55:28;32.9;;;17.4;;
69917;SDS011;57203;42.672;23.334;2022-11-11T01:56:28;32.8;;;17.1;;
69917;SDS011;57203;42.672;23.334;2022-11-11T01:57:31;31.0;;;16.7;;
69917;SDS011;57203;42.672;23.334;2022-11-11T01:58:29;31.0;;;15.5;;
69917;SDS011;57203;42.672;23.334;2022-11-11T01:59:29;29.1;;;16.7;;
69917;SDS011;57203;42.672;23.334;2022-11-11T02:00:29;33.7;;;16.9;;
69917;SDS011;57203;42.672;23.334;2022-11-11T02:01:29;33.7;;;15.7;;
69917;SDS011;57203;42.672;23.334;2022-11-11T02:02:31;31.4;;;16.1;;
69917;SDS011;57203;42.672;23.334;2022-11-11T02:03:30;29.0;;;16.5;;
69917;SDS011;57203;42.672;23.334;2022-11-11T02:04:30;31.9;;;16.8;;
69917;SDS011;57203;42.672;23.334;2022-11-11T02:05:30;31.9;;;16.4;;
69917;SDS011;57203;42.672;23.334;2022-11-11T02:06:30;30.4;;;16.5;;
69917;SDS011;57203;42.672;23.334;2022-11-11T02:07:30;32.0;;;16.4;;
69917;SDS011;57203;42.672;23.334;2022-11-11T02:08:31;31.6;;;15.8;;
69917;SDS011;57203;42.672;23.334;2022-11-11T02:09:31;32.0;;;17.0;;
69917;SDS011;57203;42.672;23.334;2022-11-11T02:10:32;30.4;;;16.2;;
69917;SDS011;57203;42.672;23.334;2022-11-11T02:11:31;29.3;;;16.3;;
69917;SDS011;57203;42.672;23.334;2022-11-11T02:12:31;30.6;;;16.2;;
69917;SDS011;57203;42.672;23.334;2022-11-11T02:13:32;30.6;;;18.0;;
69917;SDS011;57203;42.672;23.334;2022-11-11T02:14:32;36.2;;;18.5;;
69917;SDS011;57203;42.672;23.334;2022-11-11T02:15:32;36.2;;;17.9;;
69917;SDS011;57203;42.672;23.334;2022-11-11T02:16:32;31.9;;;17.5;;
69917;SDS011;57203;42.672;23.334;2022-11-11T02:17:32;34.7;;;17.8;;
69917;SDS011;57203;42.672;23.334;2022-11-11T02:18:33;33.6;;;19.3;;
69917;SDS011;57203;42.672;23.334;2022-11-11T02:19:34;33.6;;;16.6;;
69917;SDS011;57203;42.672;23.334;2022-11-11T02:20:33;32.2;;;18.2;;
69917;SDS011;57203;42.672;23.334;2022-11-11T02:21:34;36.4;;;17.6;;
69917;SDS011;57203;42.672;23.334;2022-11-11T02:22:37;33.1;;;18.9;;
69917;SDS011;57203;42.672;23.334;2022-11-11T02:23:34;33.7;;;17.9;;
69917;SDS011;57203;42.672;23.334;2022-11-11T02:24:34;34.4;;;18.2;;
69917;SDS011;57203;42.672;23.334;2022-11-11T02:25:34;33.3;;;17.6;;
69917;SDS011;57203;42.672;23.334;2022-11-11T02:26:34;33.8;;;18.2;;
69917;SDS011;57203;42.672;23.334;2022-11-11T02:27:34;38.2;;;18.6;;
69917;SDS011;57203;42.672;23.334;2022-11-11T02:28:34;31.6;;;17.7;;
69917;SDS011;57203;42.672;23.334;2022-11-11T02:29:35;31.6;;;18.3;;
69917;SDS011;57203;42.672;23.334;2022-11-11T02:30:35;30.9;;;17.9;;
69917;SDS011;57203;42.672;23.334;2022-11-11T02:31:35;33.3;;;17.6;;
69917;SDS011;57203;42.672;23.334;2022-11-11T02:32:35;31.1;;;18.6;;
69917;SDS011;57203;42.672;23.334;2022-11-11T02:34:35;30.9;;;17.3;;
69917;SDS011;57203;42.672;23.334;2022-11-11T02:35:36;30.9;;;17.5;;
69917;SDS011;57203;42.672;23.334;2022-11-11T02:36:36;33.6;;;18.6;;
69917;SDS011;57203;42.672;23.334;2022-11-11T02:37:36;34.7;;;19.0;;
69917;SDS011;57203;42.672;23.334;2022-11-11T02:38:36;33.0;;;18.4;;
69917;SDS011;57203;42.672;23.334;2022-11-11T02:39:38;33.0;;;17.5;;
69917;SDS011;57203;42.672;23.334;2022-11-11T02:40:37;33.9;;;18.7;;
69917;SDS011;57203;42.672;23.334;2022-11-11T02:41:37;33.6;;;17.8;;
69917;SDS011;57203;42.672;23.334;2022-11-11T02:42:37;33.8;;;17.7;;
69917;SDS011;57203;42.672;23.334;2022-11-11T02:43:37;35.9;;;18.9;;
69917;SDS011;57203;42.672;23.334;2022-11-11T02:44:37;32.6;;;18.4;;
69917;SDS011;57203;42.672;23.334;2022-11-11T02:45:37;36.7;;;18.6;;
69917;SDS011;57203;42.672;23.334;2022-11-11T02:46:38;36.7;;;18.9;;
69917;SDS011;57203;42.672;23.334;2022-11-11T02:48:38;36.3;;;18.2;;
69917;SDS011;57203;42.672;23.334;2022-11-11T02:49:38;36.2;;;17.7;;
69917;SDS011;57203;42.672;23.334;2022-11-11T02:50:38;33.9;;;18.4;;
69917;SDS011;57203;42.672;23.334;2022-11-11T02:51:38;38.2;;;18.6;;
69917;SDS011;57203;42.672;23.334;2022-11-11T02:52:39;34.6;;;17.8;;
69917;SDS011;57203;42.672;23.334;2022-11-11T02:53:39;34.4;;;18.3;;
69917;SDS011;57203;42.672;23.334;2022-11-11T02:54:39;34.4;;;18.7;;
69917;SDS011;57203;42.672;23.334;2022-11-11T02:55:39;33.6;;;18.5;;
69917;SDS011;57203;42.672;23.334;2022-11-11T02:56:39;34.3;;;17.7;;
69917;SDS011;57203;42.672;23.334;2022-11-11T02:57:40;29.4;;;16.7;;
69917;SDS011;57203;42.672;23.334;2022-11-11T02:58:40;29.5;;;17.4;;
69917;SDS011;57203;42.672;23.334;2022-11-11T02:59:40;32.2;;;17.6;;
69917;SDS011;57203;42.672;23.334;2022-11-11T03:00:40;32.2;;;16.8;;
69917;SDS011;57203;42.672;23.334;2022-11-11T03:01:40;34.4;;;18.1;;
69917;SDS011;57203;42.672;23.334;2022-11-11T03:02:40;33.0;;;17.3;;
69917;SDS011;57203;42.672;23.334;2022-11-11T03:03:41;30.6;;;16.8;;
69917;SDS011;57203;42.672;23.334;2022-11-11T03:04:41;31.8;;;17.3;;
69917;SDS011;57203;42.672;23.334;2022-11-11T03:05:41;30.9;;;17.2;;
69917;SDS011;57203;42.672;23.334;2022-11-11T03:06:41;30.7;;;17.4;;
69917;SDS011;57203;42.672;23.334;2022-11-11T03:07:42;30.7;;;17.2;;
69917;SDS011;57203;42.672;23.334;2022-11-11T03:08:42;30.7;;;16.0;;
69917;SDS011;57203;42.672;23.334;2022-11-11T03:09:42;28.2;;;17.0;;
69917;SDS011;57203;42.672;23.334;2022-11-11T03:10:42;30.7;;;17.4;;
69917;SDS011;57203;42.672;23.334;2022-11-11T03:11:42;32.9;;;16.8;;
69917;SDS011;57203;42.672;23.334;2022-11-11T03:12:43;32.9;;;17.5;;
69917;SDS011;57203;42.672;23.334;2022-11-11T03:13:43;32.2;;;16.5;;
69917;SDS011;57203;42.672;23.334;2022-11-11T03:14:43;31.7;;;16.7;;
69917;SDS011;57203;42.672;23.334;2022-11-11T03:15:43;31.7;;;16.0;;
69917;SDS011;57203;42.672;23.334;2022-11-11T03:17:44;29.4;;;15.3;;
69917;SDS011;57203;42.672;23.334;2022-11-11T03:18:44;29.3;;;16.4;;
69917;SDS011;57203;42.672;23.334;2022-11-11T03:19:44;31.6;;;16.3;;
69917;SDS011;57203;42.672;23.334;2022-11-11T03:20:44;31.7;;;16.6;;
69917;SDS011;57203;42.672;23.334;2022-11-11T03:21:44;31.0;;;16.5;;
69917;SDS011;57203;42.672;23.334;2022-11-11T03:23:45;30.3;;;16.9;;
69917;SDS011;57203;42.672;23.334;2022-11-11T03:24:45;31.1;;;16.7;;
69917;SDS011;57203;42.672;23.334;2022-11-11T03:25:46;31.1;;;16.9;;
69917;SDS011;57203;42.672;23.334;2022-11-11T03:26:45;27.8;;;17.3;;
69917;SDS011;57203;42.672;23.334;2022-11-11T03:27:46;30.7;;;16.7;;
69917;SDS011;57203;42.672;23.334;2022-11-11T03:28:46;31.9;;;17.1;;
69917;SDS011;57203;42.672;23.334;2022-11-11T03:29:46;30.3;;;17.0;;
69917;SDS011;57203;42.672;23.334;2022-11-11T03:31:46;31.0;;;16.4;;
69917;SDS011;57203;42.672;23.334;2022-11-11T03:32:46;31.9;;;16.9;;
69917;SDS011;57203;42.672;23.334;2022-11-11T03:33:47;30.2;;;17.8;;
69917;SDS011;57203;42.672;23.334;2022-11-11T03:34:47;31.0;;;18.0;;
69917;SDS011;57203;42.672;23.334;2022-11-11T03:35:47;33.1;;;18.4;;
69917;SDS011;57203;42.672;23.334;2022-11-11T03:36:47;33.1;;;17.7;;
69917;SDS011;57203;42.672;23.334;2022-11-11T03:37:47;31.4;;;17.2;;
69917;SDS011;57203;42.672;23.334;2022-11-11T03:38:48;32.6;;;16.9;;
69917;SDS011;57203;42.672;23.334;2022-11-11T03:39:48;31.0;;;16.8;;
69917;SDS011;57203;42.672;23.334;2022-11-11T03:40:49;31.5;;;17.1;;
69917;SDS011;57203;42.672;23.334;2022-11-11T03:41:48;35.3;;;18.0;;
69917;SDS011;57203;42.672;23.334;2022-11-11T03:42:48;35.3;;;17.9;;
69917;SDS011;57203;42.672;23.334;2022-11-11T03:43:49;34.5;;;16.7;;
69917;SDS011;57203;42.672;23.334;2022-11-11T03:44:49;30.1;;;17.3;;
69917;SDS011;57203;42.672;23.334;2022-11-11T03:45:49;33.3;;;17.4;;
69917;SDS011;57203;42.672;23.334;2022-11-11T03:46:49;31.0;;;16.7;;
69917;SDS011;57203;42.672;23.334;2022-11-11T03:47:49;32.2;;;17.3;;
69917;SDS011;57203;42.672;23.334;2022-11-11T03:48:50;31.4;;;17.4;;
69917;SDS011;57203;42.672;23.334;2022-11-11T03:49:50;28.9;;;15.5;;
69917;SDS011;57203;42.672;23.334;2022-11-11T03:50:50;28.9;;;17.2;;
69917;SDS011;57203;42.672;23.334;2022-11-11T03:51:50;32.6;;;17.3;;
69917;SDS011;57203;42.672;23.334;2022-11-11T03:53:50;29.4;;;16.7;;
69917;SDS011;57203;42.672;23.334;2022-11-11T03:54:51;29.4;;;16.9;;
69917;SDS011;57203;42.672;23.334;2022-11-11T03:55:51;30.3;;;17.0;;
69917;SDS011;57203;42.672;23.334;2022-11-11T03:56:51;31.2;;;16.7;;
69917;SDS011;57203;42.672;23.334;2022-11-11T03:57:51;30.7;;;17.4;;
69917;SDS011;57203;42.672;23.334;2022-11-11T03:58:51;30.7;;;17.0;;
69917;SDS011;57203;42.672;23.334;2022-11-11T03:59:52;30.1;;;16.9;;
69917;SDS011;57203;42.672;23.334;2022-11-11T04:00:52;31.3;;;18.2;;
69917;SDS011;57203;42.672;23.334;2022-11-11T04:01:52;34.4;;;17.6;;
69917;SDS011;57203;42.672;23.334;2022-11-11T04:03:00;31.3;;;17.2;;
69917;SDS011;57203;42.672;23.334;2022-11-11T04:03:52;32.0;;;17.5;;
69917;SDS011;57203;42.672;23.334;2022-11-11T04:04:53;35.4;;;17.3;;
69917;SDS011;57203;42.672;23.334;2022-11-11T04:05:53;32.6;;;18.8;;
69917;SDS011;57203;42.672;23.334;2022-11-11T04:06:53;30.1;;;16.8;;
69917;SDS011;57203;42.672;23.334;2022-11-11T04:07:53;30.1;;;17.1;;
69917;SDS011;57203;42.672;23.334;2022-11-11T04:08:53;32.8;;;17.2;;
69917;SDS011;57203;42.672;23.334;2022-11-11T04:09:53;30.7;;;18.4;;
69917;SDS011;57203;42.672;23.334;2022-11-11T04:10:54;31.8;;;17.7;;
69917;SDS011;57203;42.672;23.334;2022-11-11T04:11:54;31.9;;;18.7;;
69917;SDS011;57203;42.672;23.334;2022-11-11T04:12:54;33.0;;;19.3;;
69917;SDS011;57203;42.672;23.334;2022-11-11T04:13:55;36.0;;;17.8;;
69917;SDS011;57203;42.672;23.334;2022-11-11T04:14:54;32.6;;;18.6;;
69917;SDS011;57203;42.672;23.334;2022-11-11T04:15:55;36.1;;;19.0;;
69917;SDS011;57203;42.672;23.334;2022-11-11T04:16:55;35.7;;;18.8;;
69917;SDS011;57203;42.672;23.334;2022-11-11T04:17:55;34.2;;;18.0;;
69917;SDS011;57203;42.672;23.334;2022-11-11T04:18:55;34.1;;;19.8;;
69917;SDS011;57203;42.672;23.334;2022-11-11T04:19:55;37.9;;;18.4;;
69917;SDS011;57203;42.672;23.334;2022-11-11T04:20:56;37.6;;;18.8;;
69917;SDS011;57203;42.672;23.334;2022-11-11T04:21:56;34.4;;;18.0;;
69917;SDS011;57203;42.672;23.334;2022-11-11T04:22:56;34.0;;;18.7;;
69917;SDS011;57203;42.672;23.334;2022-11-11T04:23:56;32.8;;;17.4;;
69917;SDS011;57203;42.672;23.334;2022-11-11T04:24:56;32.8;;;18.0;;
69917;SDS011;57203;42.672;23.334;2022-11-11T04:25:59;33.0;;;18.7;;
69917;SDS011;57203;42.672;23.334;2022-11-11T04:26:58;33.3;;;17.8;;
69917;SDS011;57203;42.672;23.334;2022-11-11T04:27:57;33.3;;;19.6;;
69917;SDS011;57203;42.672;23.334;2022-11-11T04:28:57;39.2;;;19.1;;
69917;SDS011;57203;42.672;23.334;2022-11-11T04:29:57;36.0;;;18.7;;
69917;SDS011;57203;42.672;23.334;2022-11-11T04:30:58;32.3;;;18.3;;
69917;SDS011;57203;42.672;23.334;2022-11-11T04:31:58;32.6;;;18.2;;
69917;SDS011;57203;42.672;23.334;2022-11-11T04:32:58;32.6;;;17.1;;
69917;SDS011;57203;42.672;23.334;2022-11-11T04:33:58;32.5;;;18.0;;
69917;SDS011;57203;42.672;23.334;2022-11-11T04:34:59;36.2;;;17.2;;
69917;SDS011;57203;42.672;23.334;2022-11-11T04:35:58;33.2;;;17.6;;
69917;SDS011;57203;42.672;23.334;2022-11-11T04:36:59;32.8;;;17.7;;
69917;SDS011;57203;42.672;23.334;2022-11-11T04:37:59;32.5;;;18.4;;
69917;SDS011;57203;42.672;23.334;2022-11-11T04:38:59;35.1;;;16.5;;
69917;SDS011;57203;42.672;23.334;2022-11-11T04:39:59;29.6;;;17.4;;
69917;SDS011;57203;42.672;23.334;2022-11-11T04:40:59;30.0;;;16.0;;
69917;SDS011;57203;42.672;23.334;2022-11-11T04:41:59;31.2;;;17.3;;
69917;SDS011;57203;42.672;23.334;2022-11-11T04:43:00;32.8;;;16.2;;
69917;SDS011;57203;42.672;23.334;2022-11-11T04:45:00;28.8;;;17.5;;
69917;SDS011;57203;42.672;23.334;2022-11-11T04:46:00;34.7;;;15.6;;
69917;SDS011;57203;42.672;23.334;2022-11-11T04:47:00;29.9;;;16.8;;
69917;SDS011;57203;42.672;23.334;2022-11-11T04:48:02;31.0;;;16.6;;
69917;SDS011;57203;42.672;23.334;2022-11-11T04:49:01;35.0;;;16.0;;
69917;SDS011;57203;42.672;23.334;2022-11-11T04:50:01;28.9;;;18.2;;
69917;SDS011;57203;42.672;23.334;2022-11-11T04:51:01;36.1;;;16.5;;
69917;SDS011;57203;42.672;23.334;2022-11-11T04:52:01;26.9;;;14.5;;
69917;SDS011;57203;42.672;23.334;2022-11-11T04:53:02;32.5;;;16.5;;
69917;SDS011;57203;42.672;23.334;2022-11-11T04:54:02;32.5;;;16.6;;
69917;SDS011;57203;42.672;23.334;2022-11-11T04:55:02;31.8;;;14.9;;
69917;SDS011;57203;42.672;23.334;2022-11-11T04:56:02;29.3;;;15.4;;
69917;SDS011;57203;42.672;23.334;2022-11-11T04:57:02;29.4;;;16.0;;
69917;SDS011;57203;42.672;23.334;2022-11-11T04:58:02;29.4;;;16.2;;
69917;SDS011;57203;42.672;23.334;2022-11-11T04:59:03;29.0;;;17.0;;
69917;SDS011;57203;42.672;23.334;2022-11-11T05:00:03;32.1;;;16.0;;
69917;SDS011;57203;42.672;23.334;2022-11-11T05:01:03;31.4;;;16.8;;
69917;SDS011;57203;42.672;23.334;2022-11-11T05:02:03;30.3;;;15.2;;
69917;SDS011;57203;42.672;23.334;2022-11-11T05:04:04;26.9;;;16.5;;
69917;SDS011;57203;42.672;23.334;2022-11-11T05:05:04;29.6;;;17.1;;
69917;SDS011;57203;42.672;23.334;2022-11-11T05:06:04;28.6;;;16.4;;
69917;SDS011;57203;42.672;23.334;2022-11-11T05:07:04;28.6;;;14.4;;
69917;SDS011;57203;42.672;23.334;2022-11-11T05:08:04;27.2;;;16.6;;
69917;SDS011;57203;42.672;23.334;2022-11-11T05:09:04;26.2;;;15.3;;
69917;SDS011;57203;42.672;23.334;2022-11-11T05:10:05;30.0;;;16.4;;
69917;SDS011;57203;42.672;23.334;2022-11-11T05:11:05;30.0;;;16.2;;
69917;SDS011;57203;42.672;23.334;2022-11-11T05:12:05;28.4;;;15.7;;
69917;SDS011;57203;42.672;23.334;2022-11-11T05:13:05;31.1;;;16.4;;
69917;SDS011;57203;42.672;23.334;2022-11-11T05:14:05;31.1;;;15.4;;
69917;SDS011;57203;42.672;23.334;2022-11-11T05:15:06;27.9;;;15.3;;
69917;SDS011;57203;42.672;23.334;2022-11-11T05:17:07;27.9;;;15.5;;
69917;SDS011;57203;42.672;23.334;2022-11-11T05:18:06;30.4;;;15.8;;
69917;SDS011;57203;42.672;23.334;2022-11-11T05:19:07;29.2;;;15.3;;
69917;SDS011;57203;42.672;23.334;2022-11-11T05:20:07;27.0;;;14.8;;
69917;SDS011;57203;42.672;23.334;2022-11-11T05:21:08;26.2;;;15.6;;
69917;SDS011;57203;42.672;23.334;2022-11-11T05:22:08;28.2;;;14.4;;
69917;SDS011;57203;42.672;23.334;2022-11-11T05:23:07;27.0;;;15.2;;
69917;SDS011;57203;42.672;23.334;2022-11-11T05:24:07;27.0;;;15.7;;
69917;SDS011;57203;42.672;23.334;2022-11-11T05:25:08;28.5;;;15.8;;
69917;SDS011;57203;42.672;23.334;2022-11-11T05:26:08;28.1;;;15.6;;
69917;SDS011;57203;42.672;23.334;2022-11-11T05:27:08;28.1;;;14.3;;
69917;SDS011;57203;42.672;23.334;2022-11-11T05:28:08;24.7;;;14.8;;
69917;SDS011;57203;42.672;23.334;2022-11-11T05:29:08;29.8;;;13.6;;
69917;SDS011;57203;42.672;23.334;2022-11-11T05:30:10;23.8;;;15.0;;
69917;SDS011;57203;42.672;23.334;2022-11-11T05:31:09;27.2;;;13.9;;
69917;SDS011;57203;42.672;23.334;2022-11-11T05:32:09;27.2;;;14.8;;
69917;SDS011;57203;42.672;23.334;2022-11-11T05:33:09;27.1;;;13.3;;
69917;SDS011;57203;42.672;23.334;2022-11-11T05:35:10;23.5;;;12.8;;
69917;SDS011;57203;42.672;23.334;2022-11-11T05:36:10;23.5;;;10.9;;
69917;SDS011;57203;42.672;23.334;2022-11-11T05:37:10;16.7;;;12.4;;
69917;SDS011;57203;42.672;23.334;2022-11-11T05:38:10;21.4;;;12.0;;
69917;SDS011;57203;42.672;23.334;2022-11-11T05:39:10;21.4;;;12.5;;
69917;SDS011;57203;42.672;23.334;2022-11-11T05:40:11;22.6;;;11.6;;
69917;SDS011;57203;42.672;23.334;2022-11-11T05:41:11;21.3;;;12.2;;
69917;SDS011;57203;42.672;23.334;2022-11-11T05:42:11;22.5;;;11.9;;
69917;SDS011;57203;42.672;23.334;2022-11-11T05:43:11;19.9;;;11.7;;
69917;SDS011;57203;42.672;23.334;2022-11-11T05:44:11;23.6;;;12.5;;
69917;SDS011;57203;42.672;23.334;2022-11-11T05:45:11;21.1;;;12.7;;
69917;SDS011;57203;42.672;23.334;2022-11-11T05:46:12;21.1;;;12.8;;
69917;SDS011;57203;42.672;23.334;2022-11-11T05:47:12;21.8;;;12.0;;
69917;SDS011;57203;42.672;23.334;2022-11-11T05:48:12;21.8;;;13.6;;
69917;SDS011;57203;42.672;23.334;2022-11-11T05:49:12;23.8;;;14.4;;
69917;SDS011;57203;42.672;23.334;2022-11-11T05:50:12;23.9;;;13.4;;
69917;SDS011;57203;42.672;23.334;2022-11-11T05:51:13;24.2;;;12.8;;
69917;SDS011;57203;42.672;23.334;2022-11-11T05:52:13;21.8;;;12.9;;
69917;SDS011;57203;42.672;23.334;2022-11-11T05:53:13;21.8;;;12.0;;
69917;SDS011;57203;42.672;23.334;2022-11-11T05:54:13;22.2;;;12.9;;
69917;SDS011;57203;42.672;23.334;2022-11-11T05:55:13;25.4;;;13.0;;
69917;SDS011;57203;42.672;23.334;2022-11-11T05:56:13;20.6;;;11.4;;
69917;SDS011;57203;42.672;23.334;2022-11-11T05:57:14;20.6;;;12.1;;
69917;SDS011;57203;42.672;23.334;2022-11-11T05:58:14;21.3;;;12.7;;
69917;SDS011;57203;42.672;23.334;2022-11-11T05:59:14;22.1;;;12.4;;
69917;SDS011;57203;42.672;23.334;2022-11-11T06:00:15;22.0;;;12.6;;
69917;SDS011;57203;42.672;23.334;2022-11-11T06:01:14;23.7;;;12.8;;
69917;SDS011;57203;42.672;23.334;2022-11-11T06:02:15;24.8;;;13.1;;
69917;SDS011;57203;42.672;23.334;2022-11-11T06:03:15;20.6;;;13.4;;
69917;SDS011;57203;42.672;23.334;2022-11-11T06:04:15;24.4;;;13.6;;
69917;SDS011;57203;42.672;23.334;2022-11-11T06:05:15;24.4;;;14.3;;
69917;SDS011;57203;42.672;23.334;2022-11-11T06:06:15;24.2;;;13.5;;
69917;SDS011;57203;42.672;23.334;2022-11-11T06:07:15;22.5;;;11.4;;
69917;SDS011;57203;42.672;23.334;2022-11-11T06:08:15;22.5;;;12.4;;
69917;SDS011;57203;42.672;23.334;2022-11-11T06:09:16;22.1;;;12.9;;
69917;SDS011;57203;42.672;23.334;2022-11-11T06:10:16;24.2;;;12.8;;
69917;SDS011;57203;42.672;23.334;2022-11-11T06:11:16;21.2;;;13.1;;
69917;SDS011;57203;42.672;23.334;2022-11-11T06:12:16;21.2;;;12.6;;
69917;SDS011;57203;42.672;23.334;2022-11-11T06:13:17;21.2;;;14.5;;
69917;SDS011;57203;42.672;23.334;2022-11-11T06:14:17;27.1;;;12.9;;
69917;SDS011;57203;42.672;23.334;2022-11-11T06:16:17;22.9;;;13.4;;
69917;SDS011;57203;42.672;23.334;2022-11-11T06:17:17;24.0;;;12.9;;
69917;SDS011;57203;42.672;23.334;2022-11-11T06:18:17;20.9;;;12.8;;